Time;durP1;ratioP1;P1;durP2;ratioP2;P2;SDS_P1;SDS_P2;PMS_P1;PMS_P2;Temp;Humidity;BMP_temperature;BMP_pressure;BME280_temperature;BME280_humidity;BME280_pressure;Samples;Min_cycle;Max_cycle;Signal;HPM_P1;HPM_P2
2023/02/05 05:02:27;;;;;;;1.33;1.33;;;-0.30;99.90;;;;;;5020616;23;20326;-69
2023/02/05 05:04:54;;;;;;;0.40;0.40;;;-0.30;99.90;;;;;;4951751;29;20683;-69
2023/02/05 05:07:21;;;;;;;0.30;0.30;;;-0.20;99.90;;;;;;4950534;28;20208;-69
2023/02/05 05:09:48;;;;;;;0.57;0.57;;;-0.30;99.90;;;;;;4951024;28;20211;-69
2023/02/05 05:12:14;;;;;;;0.50;0.50;;;-0.20;99.90;;;;;;4935661;28;20243;-69
2023/02/05 05:14:41;;;;;;;0.75;0.75;;;-0.20;99.90;;;;;;4931024;29;20217;-68
2023/02/05 05:17:08;;;;;;;0.30;0.30;;;-0.20;99.90;;;;;;4947274;23;20239;-69
2023/02/05 05:19:36;;;;;;;0.82;0.82;;;-0.20;99.90;;;;;;4918265;29;20589;-68
2023/02/05 05:22:03;;;;;;;3.53;2.25;;;-0.20;99.90;;;;;;4920294;29;20294;-68
2023/02/05 05:24:30;;;;;;;0.30;0.30;;;-0.20;99.90;;;;;;4923575;29;20243;-70
2023/02/05 05:26:56;;;;;;;0.80;0.80;;;-0.20;99.90;;;;;;4915074;29;20223;-70
2023/02/05 05:29:23;;;;;;;0.20;0.20;;;-0.10;99.90;;;;;;4907412;29;20226;-69
2023/02/05 05:31:52;;;;;;;0.30;0.30;;;-0.10;99.90;;;;;;4904140;29;20626;-70
2023/02/05 05:34:19;;;;;;;0.38;0.38;;;-0.10;99.90;;;;;;4901725;29;20641;-68
2023/02/05 05:36:47;;;;;;;0.10;0.10;;;-0.10;99.90;;;;;;4908210;29;20241;-68
2023/02/05 05:44:57;;;;;;;0.20;0.20;;;-0.10;99.90;;;;;;4900812;29;20242;-69
2023/02/05 05:47:24;;;;;;;0.20;0.20;;;-0.10;99.90;;;;;;4905779;29;20236;-68
2023/02/05 05:49:50;;;;;;;0.20;0.20;;;-0.10;99.90;;;;;;4920943;29;20224;-70
2023/02/05 05:52:18;;;;;;;0.40;0.40;;;-0.10;99.90;;;;;;4898632;29;20234;-69
2023/02/05 05:54:45;;;;;;;3.17;3.00;;;-0.10;99.90;;;;;;4897157;29;20676;-68
2023/02/05 05:57:12;;;;;;;0.30;0.30;;;-0.10;99.90;;;;;;4905967;29;20233;-68
2023/02/05 05:59:39;;;;;;;0.63;0.63;;;0.00;99.90;;;;;;4898595;29;20209;-68
2023/02/05 06:02:06;;;;;;;0.10;0.10;;;-0.10;99.90;;;;;;4897478;29;20214;-70
2023/02/05 06:04:32;;;;;;;0.10;0.10;;;0.00;99.90;;;;;;4897182;29;20516;-71
2023/02/05 06:07:01;;;;;;;0.45;0.45;;;0.00;99.90;;;;;;4913978;29;20214;-70
2023/02/05 06:09:29;;;;;;;0.55;0.55;;;0.00;99.90;;;;;;4906358;29;20210;-69
2023/02/05 06:11:56;;;;;;;0.90;0.90;;;0.10;99.90;;;;;;4897260;29;20230;-69
2023/02/05 06:14:22;;;;;;;0.43;0.43;;;0.10;99.90;;;;;;4906097;29;20214;-69
2023/02/05 06:16:50;;;;;;;0.63;0.63;;;0.20;99.90;;;;;;4898626;29;20206;-70
2023/02/05 06:19:17;;;;;;;0.65;0.65;;;0.10;99.90;;;;;;4900035;29;20241;-69
2023/02/05 06:21:44;;;;;;;0.68;0.68;;;0.10;99.90;;;;;;4901625;29;20210;-68
2023/02/05 06:24:11;;;;;;;0.75;0.75;;;0.10;99.90;;;;;;4905907;29;20218;-68
2023/02/05 06:26:39;;;;;;;0.20;0.20;;;0.10;99.90;;;;;;4896824;29;20236;-69
2023/02/05 06:29:05;;;;;;;1.55;1.55;;;0.10;99.90;;;;;;4905731;29;20233;-70
2023/02/05 06:31:32;;;;;;;0.95;0.95;;;0.10;99.90;;;;;;4900630;29;20213;-68
2023/02/05 06:34:00;;;;;;;0.22;0.22;;;0.10;99.90;;;;;;4908341;29;20214;-70
2023/02/05 06:36:27;;;;;;;2.00;1.33;;;0.10;99.90;;;;;;4909747;29;20265;-69
2023/02/05 06:38:53;;;;;;;0.20;0.20;;;0.20;99.90;;;;;;4884624;29;20249;-70
2023/02/05 06:41:20;;;;;;;0.93;0.93;;;0.20;99.90;;;;;;4904001;29;20210;-68
2023/02/05 06:43:49;;;;;;;0.20;0.20;;;0.20;99.90;;;;;;4906270;29;20693;-69
2023/02/05 06:46:15;;;;;;;0.95;0.95;;;0.20;99.90;;;;;;4895186;29;20670;-69
2023/02/05 06:48:42;;;;;;;0.68;0.68;;;0.30;99.90;;;;;;4884304;29;20238;-70
2023/02/05 06:51:09;;;;;;;0.10;0.10;;;0.30;99.90;;;;;;4903679;29;20686;-69
2023/02/05 06:53:36;;;;;;;0.88;0.88;;;0.30;99.90;;;;;;4896196;29;20237;-70
2023/02/05 06:56:02;;;;;;;1.10;0.50;;;0.30;99.90;;;;;;4904109;29;20217;-68
2023/02/05 06:58:29;;;;;;;0.45;0.35;;;0.30;99.90;;;;;;4907558;29;20235;-68
2023/02/05 07:00:57;;;;;;;0.65;0.65;;;0.30;99.90;;;;;;4905671;29;20212;-73
2023/02/05 07:03:24;;;;;;;0.88;0.77;;;0.30;99.90;;;;;;4897593;29;20634;-70
2023/02/05 07:05:51;;;;;;;1.45;0.88;;;0.30;99.90;;;;;;4896419;29;20313;-70
2023/02/05 07:08:18;;;;;;;3.25;1.15;;;0.30;99.90;;;;;;4901256;29;20251;-68
2023/02/05 07:10:45;;;;;;;1.45;1.45;;;0.30;99.90;;;;;;4902816;29;20215;-70
2023/02/05 07:13:11;;;;;;;1.15;1.15;;;0.40;99.90;;;;;;4893955;29;20701;-68
2023/02/05 07:15:38;;;;;;;0.43;0.43;;;0.40;99.90;;;;;;4897302;29;20278;-69
2023/02/05 07:18:06;;;;;;;0.60;0.60;;;0.40;99.90;;;;;;4903712;29;20249;-69
2023/02/05 07:20:33;;;;;;;1.25;1.25;;;0.50;99.90;;;;;;4903928;29;20693;-68
2023/02/05 07:23:00;;;;;;;5.50;2.38;;;0.50;99.90;;;;;;4894239;29;20219;-69
2023/02/05 07:25:27;;;;;;;4.60;4.10;;;0.50;99.90;;;;;;4900928;29;20211;-69
2023/02/05 07:27:54;;;;;;;15.25;7.00;;;0.60;99.90;;;;;;4901018;29;20324;-68
2023/02/05 07:30:21;;;;;;;5.07;2.88;;;0.60;99.90;;;;;;4897531;29;20215;-69
2023/02/05 07:32:48;;;;;;;3.20;2.08;;;0.60;99.90;;;;;;4903203;29;20234;-69
2023/02/05 07:35:16;;;;;;;4.57;4.22;;;0.60;99.90;;;;;;4904983;29;20221;-68
2023/02/05 07:37:43;;;;;;;4.15;3.85;;;0.60;99.90;;;;;;4896769;29;20227;-68
2023/02/05 07:40:10;;;;;;;2.45;1.20;;;0.70;99.90;;;;;;4896016;29;20207;-68
2023/02/05 07:42:37;;;;;;;1.30;1.25;;;0.60;99.90;;;;;;4895800;29;20203;-69
2023/02/05 07:45:04;;;;;;;2.45;2.35;;;0.70;99.90;;;;;;4904748;29;20678;-69
2023/02/05 07:47:31;;;;;;;1.05;1.02;;;0.70;99.90;;;;;;4904369;29;20225;-71
2023/02/05 07:49:58;;;;;;;2.15;1.85;;;0.70;99.90;;;;;;4896797;29;20214;-69
2023/02/05 07:52:26;;;;;;;0.90;0.90;;;0.70;99.90;;;;;;4895989;29;20230;-68
2023/02/05 07:54:53;;;;;;;1.00;1.00;;;0.80;99.90;;;;;;4897578;29;20235;-68
2023/02/05 07:57:19;;;;;;;0.60;0.60;;;0.70;99.90;;;;;;4903756;29;20243;-69
2023/02/05 07:59:46;;;;;;;0.45;0.45;;;0.70;99.90;;;;;;4896764;29;20215;-70
2023/02/05 08:02:13;;;;;;;0.68;0.68;;;0.70;99.90;;;;;;4895640;29;20205;-69
2023/02/05 08:04:40;;;;;;;0.70;0.70;;;0.70;99.90;;;;;;4908374;29;20212;-69
2023/02/05 08:07:07;;;;;;;0.20;0.20;;;0.70;99.90;;;;;;4912679;29;20229;-68
2023/02/05 08:09:36;;;;;;;2.30;0.45;;;0.70;99.90;;;;;;4896765;29;20218;-69
2023/02/05 08:12:03;;;;;;;1.02;1.02;;;0.70;99.90;;;;;;4891371;29;20214;-70
2023/02/05 08:14:30;;;;;;;0.40;0.40;;;0.70;99.90;;;;;;4906980;29;20216;-68
2023/02/05 08:16:57;;;;;;;0.20;0.20;;;0.70;99.90;;;;;;4895732;29;20233;-69
2023/02/05 08:19:24;;;;;;;3.60;0.85;;;0.70;99.90;;;;;;4896670;29;20608;-69
2023/02/05 08:21:52;;;;;;;0.50;0.50;;;0.80;99.90;;;;;;4895391;29;20219;-68
2023/02/05 08:24:18;;;;;;;1.50;1.38;;;0.80;99.90;;;;;;4897600;29;20226;-69
2023/02/05 08:26:47;;;;;;;0.57;0.57;;;0.90;99.90;;;;;;4900115;29;20305;-68
2023/02/05 08:29:14;;;;;;;0.50;0.50;;;0.90;99.90;;;;;;4905778;29;20238;-69
2023/02/05 08:31:40;;;;;;;2.25;1.50;;;0.90;99.90;;;;;;4895401;29;20222;-70
2023/02/05 08:34:07;;;;;;;0.65;0.65;;;1.00;99.90;;;;;;4894929;29;20243;-67
2023/02/05 08:36:34;;;;;;;1.00;0.75;;;1.00;99.90;;;;;;4898893;29;20211;-68
2023/02/05 08:39:01;;;;;;;1.63;1.52;;;1.00;99.90;;;;;;4896681;29;20260;-68
2023/02/05 08:41:28;;;;;;;0.40;0.40;;;1.00;99.90;;;;;;4905874;29;20238;-67
2023/02/05 08:43:56;;;;;;;0.20;0.20;;;1.00;99.90;;;;;;4896858;29;20211;-69
2023/02/05 08:46:24;;;;;;;0.20;0.20;;;1.00;99.90;;;;;;4903324;29;20281;-69
2023/02/05 08:48:52;;;;;;;0.32;0.32;;;1.10;99.90;;;;;;4900254;29;20644;-69
2023/02/05 08:51:21;;;;;;;4.80;1.70;;;1.10;99.90;;;;;;4907802;29;20209;-69
2023/02/05 08:53:48;;;;;;;0.40;0.40;;;1.10;99.90;;;;;;4901687;29;20329;-68
2023/02/05 08:56:16;;;;;;;1.45;1.45;;;1.20;99.90;;;;;;4900726;29;20693;-69
2023/02/05 08:58:42;;;;;;;0.88;0.88;;;1.20;99.90;;;;;;4893926;29;20262;-68
2023/02/05 09:01:12;;;;;;;0.80;0.80;;;1.20;99.90;;;;;;4902329;29;20224;-69
2023/02/05 09:03:39;;;;;;;0.63;0.30;;;1.30;99.90;;;;;;4896538;29;20245;-70
2023/02/05 09:06:08;;;;;;;0.50;0.50;;;1.30;99.90;;;;;;4893944;29;20222;-68
2023/02/05 09:08:36;;;;;;;2.53;0.63;;;1.30;99.90;;;;;;4898066;29;20317;-70
2023/02/05 09:11:03;;;;;;;0.65;0.65;;;1.30;99.90;;;;;;4901417;29;20298;-70
2023/02/05 09:13:30;;;;;;;0.57;0.57;;;1.30;99.90;;;;;;4898134;29;20238;-69
2023/02/05 09:15:57;;;;;;;1.20;1.20;;;1.30;99.90;;;;;;4886947;29;20679;-70
2023/02/05 09:18:25;;;;;;;0.55;0.55;;;1.30;99.90;;;;;;4898951;29;20606;-70
2023/02/05 09:20:53;;;;;;;0.40;0.40;;;1.40;99.90;;;;;;4902658;29;20209;-70
2023/02/05 09:23:20;;;;;;;2.10;0.90;;;1.40;99.90;;;;;;4899448;29;20214;-68
2023/02/05 09:25:47;;;;;;;1.02;0.93;;;1.40;99.90;;;;;;4899916;29;20214;-70
2023/02/05 09:28:15;;;;;;;2.03;1.98;;;1.50;99.90;;;;;;4899075;29;20576;-69
2023/02/05 09:30:43;;;;;;;1.77;1.67;;;1.50;99.90;;;;;;4907029;29;20225;-69
2023/02/05 09:33:11;;;;;;;0.20;0.20;;;1.60;99.90;;;;;;4904591;29;20269;-69
2023/02/05 09:35:40;;;;;;;0.85;0.40;;;1.50;99.90;;;;;;4900363;29;20302;-70
2023/02/05 09:38:07;;;;;;;0.60;0.60;;;1.60;99.90;;;;;;4892839;29;20245;-69
2023/02/05 09:40:39;;;;;;;1.42;1.42;;;1.60;99.90;;;;;;4894068;29;20210;-70
2023/02/05 09:43:23;;;;;;;0.22;0.22;;;1.70;99.90;;;;;;4892903;29;20203;-69
2023/02/05 09:45:56;;;;;;;1.02;0.98;;;1.80;99.90;;;;;;4900654;29;20266;-69
2023/02/05 09:48:48;;;;;;;1.60;1.50;;;1.90;99.90;;;;;;4898689;29;20241;-68
2023/02/05 09:51:18;;;;;;;1.08;1.08;;;1.90;99.90;;;;;;4893278;29;20294;-69
2023/02/05 09:53:50;;;;;;;0.50;0.50;;;2.00;99.90;;;;;;4903534;29;20235;-68
2023/02/05 09:56:17;;;;;;;1.95;0.75;;;2.00;99.90;;;;;;4898276;29;20207;-69
2023/02/05 09:58:48;;;;;;;0.60;0.60;;;2.10;99.90;;;;;;4909666;29;20222;-68
2023/02/05 10:01:21;;;;;;;0.82;0.80;;;2.00;99.90;;;;;;4897981;29;20575;-68
2023/02/05 10:03:52;;;;;;;0.30;0.30;;;2.00;99.90;;;;;;4898911;29;20218;-67
2023/02/05 10:06:38;;;;;;;0.93;0.93;;;2.10;99.90;;;;;;4892635;29;20211;-69
2023/02/05 10:09:20;;;;;;;0.63;0.63;;;2.10;99.90;;;;;;4902642;29;20231;-69
2023/02/05 10:11:51;;;;;;;1.88;1.77;;;2.20;99.90;;;;;;4897524;29;20234;-68
2023/02/05 10:14:33;;;;;;;0.73;0.73;;;2.20;99.90;;;;;;4895542;29;20219;-69
2023/02/05 10:17:20;;;;;;;1.05;0.82;;;2.30;99.90;;;;;;4894146;29;20208;-68
2023/02/05 10:20:03;;;;;;;0.90;0.90;;;2.30;99.90;;;;;;4897634;29;20211;-68
2023/02/05 10:22:43;;;;;;;3.45;3.35;;;2.50;99.90;;;;;;4898373;29;20235;-67
2023/02/05 10:25:43;;;;;;;7.50;4.70;;;2.50;99.90;;;;;;4904710;29;20211;-69
2023/02/05 10:28:25;;;;;;;2.30;2.30;;;2.60;99.90;;;;;;4896923;29;20689;-68
2023/02/05 10:30:58;;;;;;;3.22;3.03;;;2.60;99.90;;;;;;4899683;29;20303;-67
2023/02/05 10:33:40;;;;;;;0.73;0.73;;;2.60;99.90;;;;;;4904221;29;20298;-70
2023/02/05 10:36:10;;;;;;;2.78;2.67;;;2.70;99.90;;;;;;4893905;29;20222;-68
2023/02/05 10:38:43;;;;;;;2.13;2.00;;;2.70;99.90;;;;;;4894850;29;20224;-67
2023/02/05 10:41:16;;;;;;;2.78;2.78;;;2.70;99.90;;;;;;4897371;29;20286;-68
2023/02/05 10:43:49;;;;;;;1.00;1.00;;;2.80;99.90;;;;;;4904148;29;20203;-67
2023/02/05 10:46:17;;;;;;;2.90;0.85;;;2.80;99.90;;;;;;4906988;29;20206;-68
2023/02/05 10:48:46;;;;;;;5.82;5.45;;;2.90;99.90;;;;;;4907788;29;20234;-68
2023/02/05 10:51:16;;;;;;;2.80;2.00;;;2.90;99.90;;;;;;4894071;29;20678;-68
2023/02/05 10:53:44;;;;;;;1.65;0.90;;;2.90;99.90;;;;;;4895775;29;20242;-68
2023/02/05 10:56:17;;;;;;;0.75;0.75;;;2.90;99.90;;;;;;4900316;29;20216;-67
2023/02/05 10:58:47;;;;;;;1.10;1.10;;;2.80;99.90;;;;;;4894894;29;20242;-68
2023/02/05 11:01:18;;;;;;;0.43;0.43;;;2.80;99.90;;;;;;4891184;29;20235;-68
2023/02/05 11:04:03;;;;;;;2.28;2.13;;;2.80;99.90;;;;;;4897111;29;20219;-67
2023/02/05 11:06:36;;;;;;;5.45;2.47;;;2.80;99.90;;;;;;4895272;29;20616;-68
2023/02/05 11:09:30;;;;;;;2.05;2.05;;;2.80;99.90;;;;;;4897115;29;20318;-67
2023/02/05 11:11:59;;;;;;;2.40;2.40;;;2.90;99.90;;;;;;4894705;29;20228;-67
2023/02/05 11:14:32;;;;;;;1.83;1.50;;;2.90;99.90;;;;;;4899486;29;20582;-68
2023/02/05 11:17:03;;;;;;;0.93;0.93;;;2.90;99.90;;;;;;4906651;29;20225;-68
2023/02/05 11:19:32;;;;;;;1.25;1.25;;;2.90;99.90;;;;;;4899268;29;20530;-68
2023/02/05 11:22:01;;;;;;;1.10;1.10;;;3.00;99.90;;;;;;4908147;29;20235;-69
2023/02/05 11:24:32;;;;;;;1.63;1.60;;;3.10;99.90;;;;;;4894017;29;20207;-68
2023/02/05 11:27:27;;;;;;;4.85;2.30;;;3.30;99.90;;;;;;4892585;29;20309;-69
2023/02/05 11:29:56;;;;;;;0.80;0.80;;;3.40;99.90;;;;;;4946039;23;20236;-67
2023/02/05 11:32:32;;;;;;;1.67;1.67;;;3.30;99.90;;;;;;4950661;29;20232;-68
2023/02/05 11:35:17;;;;;;;2.95;1.75;;;3.30;99.90;;;;;;4952308;28;20678;-69
2023/02/05 11:37:45;;;;;;;1.55;1.45;;;3.20;99.90;;;;;;4951626;29;20229;-68
2023/02/05 11:40:26;;;;;;;0.80;0.80;;;3.20;99.90;;;;;;4950347;28;20698;-68
2023/02/05 11:43:05;;;;;;;1.35;1.35;;;3.30;99.90;;;;;;4950687;28;20209;-69
2023/02/05 11:45:34;;;;;;;1.52;1.45;;;3.40;99.90;;;;;;4948197;28;20217;-70
2023/02/05 11:48:03;;;;;;;1.08;1.05;;;3.40;99.90;;;;;;4948208;28;20229;-69
2023/02/05 11:50:31;;;;;;;1.88;1.77;;;3.50;99.90;;;;;;4953050;28;20254;-69
2023/02/05 11:53:08;;;;;;;1.67;1.30;;;3.50;99.90;;;;;;4950420;28;20213;-69
2023/02/05 11:55:36;;;;;;;1.70;1.60;;;3.50;99.90;;;;;;4944586;29;20210;-69
2023/02/05 11:58:05;;;;;;;1.05;1.05;;;3.50;99.90;;;;;;4952619;29;20767;-69
2023/02/05 12:00:34;;;;;;;0.82;0.82;;;3.50;99.90;;;;;;4950065;28;20245;-68
2023/02/05 12:03:13;;;;;;;1.15;1.15;;;3.50;99.90;;;;;;4951731;28;20782;-69
2023/02/05 12:05:44;;;;;;;1.65;1.60;;;3.50;99.90;;;;;;4953639;29;20627;-69
2023/02/05 12:08:15;;;;;;;3.88;0.85;;;3.40;99.90;;;;;;4953083;28;20220;-68
2023/02/05 12:10:49;;;;;;;1.63;1.63;;;3.40;99.90;;;;;;4953398;28;20198;-68
2023/02/05 12:13:24;;;;;;;1.00;1.00;;;3.50;99.90;;;;;;4953552;29;20210;-68
2023/02/05 12:16:00;;;;;;;1.40;1.40;;;3.50;99.90;;;;;;4952517;29;20204;-68
2023/02/05 12:18:38;;;;;;;3.00;1.30;;;3.50;99.90;;;;;;4948829;28;20233;-68
2023/02/05 12:21:17;;;;;;;1.15;1.15;;;3.40;99.90;;;;;;4947463;28;20232;-68
2023/02/05 12:24:10;;;;;;;0.85;0.85;;;3.40;99.90;;;;;;4945415;28;20217;-68
2023/02/05 12:26:41;;;;;;;1.13;1.00;;;3.40;99.90;;;;;;4920523;28;20220;-68
2023/02/05 12:29:26;;;;;;;3.95;2.25;;;3.50;99.90;;;;;;4950781;28;20241;-68
2023/02/05 12:32:01;;;;;;;1.30;1.30;;;3.50;99.90;;;;;;4950218;28;20288;-68
2023/02/05 12:34:37;;;;;;;1.30;1.20;;;3.40;99.90;;;;;;4951585;28;20586;-68
2023/02/05 12:37:18;;;;;;;1.00;0.98;;;3.40;99.90;;;;;;4949819;29;20208;-68
2023/02/05 12:39:47;;;;;;;1.55;1.42;;;3.40;99.90;;;;;;4951143;28;20251;-68
2023/02/05 12:42:25;;;;;;;1.05;1.05;;;3.40;99.90;;;;;;4950179;28;20229;-68
2023/02/05 12:45:08;;;;;;;2.92;1.63;;;3.40;99.90;;;;;;4952979;28;20201;-68
2023/02/05 12:47:49;;;;;;;1.60;1.60;;;3.40;99.90;;;;;;4952685;29;20578;-68
2023/02/05 12:50:34;;;;;;;0.73;0.73;;;3.40;99.90;;;;;;4951986;28;20248;-68
2023/02/05 12:53:15;;;;;;;1.02;1.02;;;3.40;99.90;;;;;;4952091;28;20217;-67
2023/02/05 12:55:51;;;;;;;2.83;2.72;;;3.40;99.90;;;;;;4951695;28;20233;-68
2023/02/05 12:58:20;;;;;;;1.65;1.65;;;3.40;99.90;;;;;;4952725;28;20264;-68
2023/02/05 13:00:51;;;;;;;1.20;1.20;;;3.50;99.90;;;;;;4949450;29;20219;-68
2023/02/05 13:03:27;;;;;;;2.72;1.63;;;3.50;99.90;;;;;;4951589;28;20210;-68
2023/02/05 13:05:58;;;;;;;1.48;1.33;;;3.70;99.90;;;;;;4952176;29;20216;-68
2023/02/05 13:08:36;;;;;;;1.35;1.33;;;3.70;99.90;;;;;;4952706;28;20210;-68
2023/02/05 13:11:10;;;;;;;0.95;0.95;;;3.80;99.90;;;;;;4951278;29;20614;-68
2023/02/05 13:13:46;;;;;;;1.10;1.10;;;3.90;99.90;;;;;;4951203;28;20206;-68
2023/02/05 13:16:18;;;;;;;1.98;1.88;;;4.00;99.90;;;;;;4951821;28;20586;-68
2023/02/05 13:18:49;;;;;;;1.00;1.00;;;4.00;99.90;;;;;;4952484;28;20707;-68
2023/02/05 13:30:00;;;;;;;1.35;1.35;;;4.20;99.90;;;;;;4952487;28;20718;-68
2023/02/05 13:32:31;;;;;;;3.03;1.20;;;4.10;99.90;;;;;;4949387;28;20221;-68
2023/02/05 13:34:58;;;;;;;2.30;2.20;;;4.10;99.90;;;;;;4956120;29;20226;-68
2023/02/05 13:37:53;;;;;;;1.58;1.58;;;4.20;99.90;;;;;;4955833;29;20198;-68
2023/02/05 13:40:51;;;;;;;1.10;1.10;;;4.20;99.90;;;;;;4947598;29;20273;-68
2023/02/05 13:43:46;;;;;;;0.75;0.75;;;4.10;99.90;;;;;;4954497;29;20656;-67
2023/02/05 13:46:37;;;;;;;0.70;0.70;;;4.10;99.90;;;;;;4955627;29;20685;-67
2023/02/05 13:49:36;;;;;;;1.63;1.63;;;4.10;99.90;;;;;;4956235;28;20230;-68
2023/02/05 13:52:31;;;;;;;2.85;2.78;;;4.20;99.90;;;;;;4956301;29;20206;-69
2023/02/05 13:55:35;;;;;;;2.03;1.92;;;4.30;99.90;;;;;;4950356;29;20234;-69
2023/02/05 13:58:21;;;;;;;1.77;1.67;;;4.30;99.90;;;;;;4954782;29;20213;-69
2023/02/05 14:00:58;;;;;;;5.65;2.00;;;4.30;99.90;;;;;;4955693;28;20211;-69
2023/02/05 14:03:38;;;;;;;1.05;1.05;;;4.30;99.90;;;;;;4955494;28;20212;-69
2023/02/05 14:06:22;;;;;;;0.80;0.80;;;4.30;99.90;;;;;;4953412;29;20241;-69
2023/02/05 14:08:51;;;;;;;1.48;1.38;;;4.30;99.90;;;;;;4955707;28;20230;-69
2023/02/05 14:11:19;;;;;;;1.25;1.25;;;4.30;99.90;;;;;;4952583;28;20297;-69
2023/02/05 14:14:19;;;;;;;1.50;1.50;;;4.30;99.90;;;;;;4955111;29;20206;-69
2023/02/05 14:16:46;;;;;;;1.00;1.00;;;4.30;99.90;;;;;;4955053;28;20209;-68
2023/02/05 14:19:21;;;;;;;1.50;1.40;;;4.30;99.90;;;;;;4955088;28;20228;-68
2023/02/05 14:22:11;;;;;;;1.55;1.45;;;4.40;99.90;;;;;;4953878;28;20675;-69
2023/02/05 14:24:48;;;;;;;1.63;1.52;;;4.40;99.90;;;;;;4947772;29;20212;-67
2023/02/05 14:27:54;;;;;;;1.45;1.40;;;4.40;99.90;;;;;;4954450;29;20212;-68
2023/02/05 14:30:46;;;;;;;1.85;1.75;;;4.40;99.90;;;;;;4954841;28;20237;-68
2023/02/05 14:33:43;;;;;;;0.82;0.82;;;4.40;99.90;;;;;;4944659;28;20831;-67
2023/02/05 14:36:34;;;;;;;1.00;1.00;;;4.40;99.90;;;;;;4954371;28;20233;-68
2023/02/05 14:39:18;;;;;;;1.60;1.10;;;4.40;99.90;;;;;;4954073;28;20234;-68
2023/02/05 14:41:49;;;;;;;1.80;1.70;;;4.30;99.90;;;;;;4953361;28;20210;-68
2023/02/05 14:44:26;;;;;;;1.30;1.30;;;4.30;99.90;;;;;;4954482;28;20277;-68
2023/02/05 14:47:05;;;;;;;1.77;1.67;;;4.20;99.90;;;;;;4954411;29;20217;-68
2023/02/05 14:49:41;;;;;;;1.90;1.90;;;4.20;99.90;;;;;;4955061;28;20228;-68
2023/02/05 14:52:26;;;;;;;3.17;2.97;;;4.10;99.90;;;;;;4951132;29;20214;-68
2023/02/05 14:54:59;;;;;;;1.10;1.10;;;4.00;99.90;;;;;;4950647;28;20695;-68
2023/02/05 14:57:29;;;;;;;3.42;1.92;;;4.00;99.90;;;;;;4952774;28;20293;-69
2023/02/05 14:59:59;;;;;;;1.40;1.40;;;4.00;99.90;;;;;;4954393;28;20320;-69
2023/02/05 15:02:48;;;;;;;1.92;1.40;;;3.90;99.90;;;;;;4954180;29;20214;-69
2023/02/05 15:05:19;;;;;;;0.75;0.75;;;3.90;99.90;;;;;;4953194;29;20197;-68
2023/02/05 15:07:49;;;;;;;2.65;2.45;;;3.80;99.90;;;;;;4953675;29;20297;-68
2023/02/05 15:10:22;;;;;;;1.45;1.45;;;3.80;99.90;;;;;;4952936;28;20241;-68
2023/02/05 15:13:00;;;;;;;2.80;0.98;;;3.70;99.90;;;;;;4950755;28;20210;-69
2023/02/05 15:15:31;;;;;;;1.95;1.08;;;3.70;99.90;;;;;;4947888;29;20748;-69
2023/02/05 15:18:05;;;;;;;2.00;1.90;;;3.70;99.90;;;;;;4953829;28;20210;-69
2023/02/05 15:20:35;;;;;;;1.13;1.13;;;3.60;99.90;;;;;;4953256;28;20324;-68
2023/02/05 15:23:06;;;;;;;0.70;0.70;;;3.60;99.90;;;;;;4951328;28;20213;-68
2023/02/05 15:25:38;;;;;;;1.25;1.25;;;3.60;99.90;;;;;;4950706;29;20206;-69
2023/02/05 15:28:09;;;;;;;1.02;1.02;;;3.60;99.90;;;;;;4950911;28;20593;-68
2023/02/05 15:30:50;;;;;;;1.05;1.05;;;3.60;99.90;;;;;;4952975;29;20210;-69
2023/02/05 15:33:28;;;;;;;3.00;1.90;;;3.60;99.90;;;;;;4953616;28;20220;-68
2023/02/05 15:35:56;;;;;;;2.97;2.25;;;3.50;99.90;;;;;;4950147;29;20226;-68
2023/02/05 15:38:31;;;;;;;2.38;2.38;;;3.50;99.90;;;;;;4947259;28;20210;-69
2023/02/05 15:40:59;;;;;;;1.58;1.42;;;3.50;99.90;;;;;;4951381;28;20212;-69
2023/02/05 15:43:27;;;;;;;1.30;0.88;;;3.50;99.90;;;;;;4951647;28;20199;-69
2023/02/05 15:46:01;;;;;;;1.50;1.50;;;3.50;99.90;;;;;;4954582;28;20300;-69
2023/02/05 15:48:30;;;;;;;5.45;2.33;;;3.50;99.90;;;;;;4950943;28;20539;-69
2023/02/05 15:51:00;;;;;;;3.00;2.80;;;3.50;99.90;;;;;;4952942;28;20209;-69
2023/02/05 15:53:34;;;;;;;1.58;1.55;;;3.40;99.90;;;;;;4950690;28;20216;-68
2023/02/05 15:56:08;;;;;;;1.95;1.85;;;3.40;99.90;;;;;;4950791;28;20624;-67
2023/02/05 15:58:35;;;;;;;1.63;1.63;;;3.40;99.90;;;;;;4953180;28;20238;-68
2023/02/05 16:01:02;;;;;;;3.40;3.25;;;3.40;99.90;;;;;;4952301;29;20206;-68
2023/02/05 16:03:33;;;;;;;2.90;2.28;;;3.40;99.90;;;;;;4952948;29;20209;-69
2023/02/05 16:06:00;;;;;;;1.60;1.50;;;3.40;99.90;;;;;;4949534;28;20607;-68
2023/02/05 16:08:27;;;;;;;3.55;2.08;;;3.40;99.90;;;;;;4944378;28;20227;-68
2023/02/05 16:11:02;;;;;;;7.35;5.53;;;3.40;99.90;;;;;;4952049;29;20216;-69
2023/02/05 16:13:29;;;;;;;2.33;2.22;;;3.40;99.90;;;;;;4948935;28;20251;-69
2023/02/05 16:16:02;;;;;;;2.85;2.65;;;3.40;99.90;;;;;;4952601;29;20701;-68
2023/02/05 16:18:37;;;;;;;2.70;2.30;;;3.30;99.90;;;;;;4939200;28;20241;-69
2023/02/05 16:21:08;;;;;;;2.10;2.03;;;3.30;99.90;;;;;;4943819;29;20259;-69
2023/02/05 16:23:41;;;;;;;2.85;2.03;;;3.30;99.90;;;;;;4943812;28;20221;-69
2023/02/05 16:26:15;;;;;;;2.40;2.25;;;3.30;99.90;;;;;;4948219;28;20202;-70
2023/02/05 16:28:47;;;;;;;3.35;2.40;;;3.30;99.90;;;;;;4951748;28;20498;-68
2023/02/05 16:31:19;;;;;;;2.33;2.22;;;3.30;99.90;;;;;;4947668;28;20269;-68
2023/02/05 16:33:51;;;;;;;5.78;3.35;;;3.30;99.90;;;;;;4949748;28;20301;-69
2023/02/05 16:36:22;;;;;;;6.78;4.65;;;3.30;99.90;;;;;;4951569;28;20698;-70
2023/02/05 16:38:54;;;;;;;3.50;3.08;;;3.20;99.90;;;;;;4950840;28;20277;-69
2023/02/05 16:41:26;;;;;;;3.75;1.95;;;3.20;99.90;;;;;;4943023;28;20236;-69
2023/02/05 16:43:54;;;;;;;2.83;2.17;;;3.20;99.90;;;;;;4943798;28;20209;-68
2023/02/05 16:46:27;;;;;;;3.42;2.30;;;3.20;99.90;;;;;;4951424;29;20699;-70
2023/02/05 16:48:56;;;;;;;5.95;3.78;;;3.20;99.90;;;;;;4951848;28;20304;-70
2023/02/05 16:51:40;;;;;;;2.40;1.92;;;3.20;99.90;;;;;;4952648;28;20218;-70
2023/02/05 16:54:29;;;;;;;2.33;2.22;;;3.20;99.90;;;;;;4951973;29;20212;-71
2023/02/05 16:57:01;;;;;;;1.88;1.88;;;3.20;99.90;;;;;;4951379;28;20205;-70
2023/02/05 16:59:31;;;;;;;2.85;2.75;;;3.20;99.90;;;;;;4947148;28;20221;-70
2023/02/05 17:01:59;;;;;;;2.20;2.08;;;3.20;99.90;;;;;;4949519;29;20304;-70
2023/02/05 17:04:31;;;;;;;1.58;1.50;;;3.20;99.90;;;;;;4943998;28;20213;-71
2023/02/05 17:07:00;;;;;;;7.72;3.28;;;3.20;99.90;;;;;;4957311;28;20646;-70
2023/02/05 17:09:31;;;;;;;1.70;1.70;;;3.20;99.90;;;;;;4945926;29;20249;-69
2023/02/05 17:12:36;;;;;;;7.10;3.88;;;3.20;99.90;;;;;;4954956;29;20399;-70
2023/02/05 17:15:20;;;;;;;4.28;2.97;;;3.20;99.90;;;;;;4950521;29;20580;-70
2023/02/05 17:17:50;;;;;;;5.22;3.33;;;3.20;99.90;;;;;;4951921;28;20228;-70
2023/02/05 17:20:21;;;;;;;4.10;3.63;;;3.20;99.90;;;;;;4954158;28;20234;-70
2023/02/05 17:23:07;;;;;;;3.13;2.00;;;3.20;99.90;;;;;;4950964;28;20217;-69
2023/02/05 17:25:37;;;;;;;1.33;1.30;;;3.20;99.90;;;;;;4953596;29;20551;-69
2023/02/05 17:28:08;;;;;;;3.88;2.35;;;3.20;99.90;;;;;;4956449;29;20212;-70
2023/02/05 17:30:34;;;;;;;4.18;3.78;;;3.20;99.90;;;;;;4959867;28;20241;-70
2023/02/05 17:33:14;;;;;;;5.43;3.17;;;3.20;99.90;;;;;;4956732;29;20304;-69
2023/02/05 17:35:42;;;;;;;2.80;2.70;;;3.20;99.90;;;;;;4958175;29;20221;-69
2023/02/05 17:38:08;;;;;;;3.85;3.50;;;3.20;99.90;;;;;;4958618;29;20206;-70
2023/02/05 17:40:35;;;;;;;2.40;2.25;;;3.20;99.90;;;;;;4957152;29;20244;-70
2023/02/05 17:43:02;;;;;;;2.72;2.60;;;3.20;99.90;;;;;;4953800;28;20209;-69
2023/02/05 17:45:33;;;;;;;4.03;2.10;;;3.10;99.90;;;;;;4953443;29;20201;-70
2023/02/05 17:48:00;;;;;;;8.10;5.15;;;3.20;99.90;;;;;;4955774;28;20277;-70
2023/02/05 17:50:27;;;;;;;5.43;4.53;;;3.20;99.90;;;;;;4954664;28;20232;-69
2023/02/05 17:52:53;;;;;;;3.35;2.28;;;3.10;99.90;;;;;;4950056;28;20232;-69
2023/02/05 17:55:22;;;;;;;6.85;4.57;;;3.20;99.90;;;;;;4953998;28;20229;-69
2023/02/05 17:57:49;;;;;;;6.15;3.80;;;3.10;99.90;;;;;;4949891;29;20205;-69
2023/02/05 18:00:18;;;;;;;2.55;2.35;;;3.20;99.90;;;;;;4954628;28;20229;-70
2023/02/05 18:02:47;;;;;;;4.88;4.00;;;3.20;99.90;;;;;;4954752;28;20587;-70
2023/02/05 18:05:14;;;;;;;9.55;4.93;;;3.20;99.90;;;;;;4953043;28;20205;-69
2023/02/05 18:07:43;;;;;;;5.05;4.55;;;3.10;99.90;;;;;;4955405;29;20209;-70
2023/02/05 18:10:13;;;;;;;3.83;3.67;;;3.20;99.90;;;;;;4954210;28;20252;-70
2023/02/05 18:12:40;;;;;;;6.75;5.32;;;3.20;99.90;;;;;;4953580;29;20221;-69
2023/02/05 18:15:08;;;;;;;3.80;3.55;;;3.20;99.90;;;;;;4952937;28;20212;-67
2023/02/05 18:17:35;;;;;;;4.60;4.40;;;3.20;99.90;;;;;;4954944;29;20300;-70
2023/02/05 18:20:03;;;;;;;4.25;3.95;;;3.20;99.90;;;;;;4953279;29;20244;-70
2023/02/05 18:22:30;;;;;;;6.38;4.93;;;3.20;99.90;;;;;;4953704;28;20210;-70
2023/02/05 18:24:57;;;;;;;5.60;5.10;;;3.20;99.90;;;;;;4953670;29;20675;-69
2023/02/05 18:27:24;;;;;;;3.53;3.38;;;3.20;99.90;;;;;;4954667;28;20214;-69
2023/02/05 18:29:51;;;;;;;3.03;2.92;;;3.20;99.90;;;;;;4952196;28;20854;-69
2023/02/05 18:32:18;;;;;;;5.65;4.43;;;3.20;99.90;;;;;;4953524;28;20659;-69
2023/02/05 18:34:45;;;;;;;4.68;4.30;;;3.20;99.90;;;;;;4954183;28;20237;-69
2023/02/05 18:37:15;;;;;;;6.43;5.18;;;3.20;99.90;;;;;;4954317;29;20234;-69